Time;durP1;ratioP1;P1;durP2;ratioP2;P2;SDS_P1;SDS_P2;PMS_P1;PMS_P2;Temp;Humidity;BMP_temperature;BMP_pressure;BME280_temperature;BME280_humidity;BME280_pressure;Samples;Min_cycle;Max_cycle;Signal;HPM_P1;HPM_P2
2022/01/14 00:02:17;;;;;;;44.87;24.97;;;;;;;;;;4881384;29;20427;-77
2022/01/14 00:04:43;;;;;;;46.08;25.02;;;;;;;;;;4904709;29;20449;-77
2022/01/14 00:07:09;;;;;;;42.88;23.40;;;;;;;;;;4890681;29;20431;-77
2022/01/14 00:09:37;;;;;;;48.65;23.58;;;;;;;;;;4896398;29;20434;-77
2022/01/14 00:12:09;;;;;;;47.13;25.33;;;;;;;;;;4911602;29;20440;-78
2022/01/14 00:14:41;;;;;;;45.67;24.40;;;;;;;;;;4907958;29;20458;-78
2022/01/14 00:17:08;;;;;;;44.60;22.92;;;;;;;;;;4913280;29;20437;-78
2022/01/14 00:19:34;;;;;;;46.58;24.40;;;;;;;;;;4909252;29;20430;-78
2022/01/14 00:22:06;;;;;;;45.75;24.58;;;;;;;;;;4908700;29;20925;-78
2022/01/14 00:33:01;;;;;;;49.28;25.40;;;;;;;;;;4913280;29;20464;-78
2022/01/14 00:35:27;;;;;;;46.83;23.42;;;;;;;;;;4890074;29;20746;-77
2022/01/14 00:37:53;;;;;;;45.30;22.85;;;;;;;;;;4876312;29;20435;-78
2022/01/14 00:40:20;;;;;;;43.97;22.92;;;;;;;;;;4913767;29;20944;-77
2022/01/14 00:42:46;;;;;;;45.47;23.10;;;;;;;;;;4911188;29;20437;-78
2022/01/14 00:45:13;;;;;;;43.50;23.40;;;;;;;;;;4896399;29;20458;-77
2022/01/14 00:47:40;;;;;;;43.53;23.33;;;;;;;;;;4894240;29;20435;-78
2022/01/14 00:50:08;;;;;;;40.92;22.92;;;;;;;;;;4899989;29;20463;-78
2022/01/14 00:52:34;;;;;;;41.97;24.10;;;;;;;;;;4907955;29;20440;-78
2022/01/14 00:55:00;;;;;;;42.27;23.17;;;;;;;;;;4912034;29;20444;-77
2022/01/14 00:59:14;;;;;;;42.75;23.58;;;;;;;;;;4884146;29;20439;-78
2022/01/14 01:00:12;;;;;;;41.88;23.35;;;;;;;;;;4911504;29;20494;-78
2022/01/14 01:02:38;;;;;;;44.30;23.00;;;;;;;;;;4912715;29;20510;-78
2022/01/14 01:05:05;;;;;;;44.40;24.58;;;;;;;;;;4889811;29;20429;-78
2022/01/14 01:07:31;;;;;;;40.67;22.95;;;;;;;;;;4879817;29;20433;-78
2022/01/14 01:09:57;;;;;;;41.63;22.87;;;;;;;;;;4908156;29;20503;-77
2022/01/14 01:12:46;;;;;;;46.13;24.73;;;;;;;;;;4893673;29;20444;-78
2022/01/14 01:15:15;;;;;;;44.45;24.02;;;;;;;;;;4912414;29;20454;-77
2022/01/14 01:17:41;;;;;;;46.67;24.53;;;;;;;;;;4888385;29;20432;-78
2022/01/14 01:20:17;;;;;;;44.40;24.92;;;;;;;;;;4880423;29;20423;-77
2022/01/14 01:22:45;;;;;;;49.08;24.42;;;;;;;;;;4885962;29;20433;-77
2022/01/14 01:25:12;;;;;;;45.28;24.88;;;;;;;;;;4909196;29;20423;-77
2022/01/14 01:27:41;;;;;;;46.60;24.80;;;;;;;;;;4903766;29;20431;-77
2022/01/14 01:30:15;;;;;;;47.35;24.27;;;;;;;;;;4887265;29;20433;-77
2022/01/14 01:32:44;;;;;;;45.42;24.05;;;;;;;;;;4902129;29;20437;-77
2022/01/14 01:35:10;;;;;;;40.85;23.30;;;;;;;;;;4895734;29;20424;-77
2022/01/14 01:37:36;;;;;;;47.58;23.63;;;;;;;;;;4876810;29;20432;-78
2022/01/14 01:40:03;;;;;;;44.53;22.80;;;;;;;;;;4891678;29;20431;-78
2022/01/14 01:42:30;;;;;;;43.20;22.92;;;;;;;;;;4903997;29;20429;-78
2022/01/14 01:44:59;;;;;;;42.67;23.80;;;;;;;;;;4912033;29;20432;-78
2022/01/14 01:47:25;;;;;;;44.22;23.17;;;;;;;;;;4891908;29;20435;-77
2022/01/14 01:49:52;;;;;;;39.42;23.17;;;;;;;;;;4890126;29;20443;-78
2022/01/14 01:52:18;;;;;;;45.50;22.55;;;;;;;;;;4904955;29;20464;-77
2022/01/14 01:54:44;;;;;;;45.77;24.20;;;;;;;;;;4894170;29;20501;-77
2022/01/14 01:57:10;;;;;;;42.97;23.35;;;;;;;;;;4895842;29;20496;-77
2022/01/14 01:59:36;;;;;;;41.90;23.30;;;;;;;;;;4895877;29;20423;-78
2022/01/14 02:02:03;;;;;;;47.38;22.98;;;;;;;;;;4906193;29;20428;-78
2022/01/14 02:04:29;;;;;;;42.05;22.55;;;;;;;;;;4909459;29;20816;-77
2022/01/14 02:06:56;;;;;;;45.42;22.90;;;;;;;;;;4888707;29;20462;-77
2022/01/14 02:09:23;;;;;;;46.75;23.55;;;;;;;;;;4890800;29;20445;-77
2022/01/14 02:11:49;;;;;;;45.83;22.55;;;;;;;;;;4909312;29;20439;-77
2022/01/14 02:19:44;;;;;;;43.25;23.98;;;;;;;;;;4902997;29;20782;-77
2022/01/14 02:22:12;;;;;;;45.17;23.95;;;;;;;;;;4907752;29;20427;-77
2022/01/14 02:27:06;;;;;;;52.38;24.38;;;;;;;;;;4904877;29;22086;-77
2022/01/14 02:29:32;;;;;;;46.58;23.52;;;;;;;;;;4888096;29;20425;-77
2022/01/14 02:31:58;;;;;;;49.40;22.83;;;;;;;;;;4887875;29;20429;-78
2022/01/14 02:34:25;;;;;;;46.17;23.52;;;;;;;;;;4907495;29;20820;-78
2022/01/14 02:36:52;;;;;;;41.65;22.23;;;;;;;;;;4912396;29;20455;-78
2022/01/14 02:39:19;;;;;;;44.88;22.92;;;6.40;99.90;;;;;;4903890;29;20461;-78
2022/01/14 02:41:47;;;;;;;47.72;23.30;;;6.50;99.90;;;;;;4892297;29;20438;-78
2022/01/14 02:44:18;;;;;;;50.78;23.38;;;;;;;;;;4885255;29;20477;-78
2022/01/14 02:46:53;;;;;;;48.05;23.30;;;;;;;;;;4897823;29;20522;-78
2022/01/14 02:49:20;;;;;;;46.53;22.33;;;;;;;;;;4903856;29;20468;-78
2022/01/14 02:51:46;;;;;;;43.42;23.02;;;;;;;;;;4906502;29;20436;-78
2022/01/14 02:54:16;;;;;;;47.37;22.97;;;;;;;;;;4883781;29;20460;-78
2022/01/14 02:56:43;;;;;;;48.53;23.30;;;;;;;;;;4902952;29;20439;-78
2022/01/14 02:59:10;;;;;;;46.58;22.83;;;;;;;;;;4881807;29;20427;-78
2022/01/14 03:01:37;;;;;;;50.80;23.83;;;;;;;;;;4900193;29;20474;-78
2022/01/14 03:04:03;;;;;;;49.33;23.00;;;;;;;;;;4903522;29;20464;-78
2022/01/14 03:06:30;;;;;;;43.35;22.48;;;;;;;;;;4908703;29;20990;-78
2022/01/14 03:08:57;;;;;;;47.10;23.50;;;;;;;;;;4894029;29;20431;-78
2022/01/14 03:11:38;;;;;;;51.22;22.92;;;;;;;;;;4906931;29;20445;-78
2022/01/14 03:14:05;;;;;;;45.05;23.38;;;;;;;;;;4889447;29;20439;-78
2022/01/14 03:16:37;;;;;;;46.53;23.50;;;;;;;;;;4906389;29;20486;-78
2022/01/14 03:19:12;;;;;;;45.28;22.98;;;;;;;;;;4909178;29;20455;-78
2022/01/14 03:21:42;;;;;;;44.95;22.92;;;;;;;;;;4897268;29;20430;-78
2022/01/14 03:26:41;;;;;;;40.13;22.13;;;;;;;;;;4909147;29;20907;-79
2022/01/14 03:29:07;;;;;;;45.50;22.42;;;;;;;;;;4916111;29;20455;-78
2022/01/14 03:31:33;;;;;;;40.53;22.08;;;;;;;;;;4900330;29;20433;-78
2022/01/14 03:34:00;;;;;;;47.80;22.65;;;;;;;;;;4901568;29;20943;-78
2022/01/14 03:36:26;;;;;;;49.75;23.48;;;;;;;;;;4907025;29;20502;-78
2022/01/14 03:38:53;;;;;;;38.90;22.35;;;;;;;;;;4907543;29;20506;-78
2022/01/14 03:41:19;;;;;;;38.42;21.05;;;;;;;;;;4898631;29;20454;-79
2022/01/14 03:43:45;;;;;;;38.22;21.52;;;;;;;;;;4912638;29;20453;-78
2022/01/14 03:46:11;;;;;;;35.85;21.05;;;;;;;;;;4883773;29;20439;-78
2022/01/14 03:48:37;;;;;;;37.22;21.48;;;;;;;;;;4906734;29;20478;-78
2022/01/14 03:51:03;;;;;;;43.63;22.85;;;;;;;;;;4899075;29;20954;-78
2022/01/14 03:53:30;;;;;;;47.28;24.50;;;;;;;;;;4889253;29;20514;-78
2022/01/14 03:55:56;;;;;;;44.30;24.17;;;;;;;;;;4902655;29;20424;-78
2022/01/14 03:58:22;;;;;;;50.58;25.92;;;;;;;;;;4909961;29;20483;-79
2022/01/14 04:00:48;;;;;;;50.65;27.83;;;;;;;;;;4897485;29;20432;-79
2022/01/14 04:03:14;;;;;;;45.78;25.33;;;;;;;;;;4876211;29;20431;-78
2022/01/14 04:05:40;;;;;;;49.43;25.37;;;;;;;;;;4912003;29;20435;-78
2022/01/14 04:08:06;;;;;;;53.38;26.65;;;;;;;;;;4890686;29;20958;-78
2022/01/14 04:10:32;;;;;;;47.37;26.40;;;;;;;;;;4909622;29;20980;-78
2022/01/14 04:13:03;;;;;;;51.47;26.48;;;;;;;;;;4895588;29;20452;-78
2022/01/14 04:15:44;;;;;;;58.53;26.95;;;;;;;;;;4911773;29;20463;-79
2022/01/14 04:18:13;;;;;;;52.92;27.17;;;;;;;;;;4906910;29;20431;-79
2022/01/14 04:20:39;;;;;;;54.40;28.00;;;;;;;;;;4886655;29;20484;-79
2022/01/14 04:23:06;;;;;;;52.20;27.57;;;;;;;;;;4907554;29;20439;-78
2022/01/14 04:25:33;;;;;;;52.20;28.33;;;;;;;;;;4897102;29;20492;-78
2022/01/14 04:27:59;;;;;;;55.40;28.88;;;;;;;;;;4912614;29;20438;-78
2022/01/14 04:30:25;;;;;;;50.30;26.90;;;;;;;;;;4904606;29;20506;-78
2022/01/14 04:32:51;;;;;;;52.30;27.98;;;;;;;;;;4890957;29;20441;-78
2022/01/14 04:35:18;;;;;;;49.90;28.30;;;;;;;;;;4910564;29;20447;-79
2022/01/14 04:37:44;;;;;;;53.25;27.52;;;;;;;;;;4892279;29;20750;-78
2022/01/14 04:40:13;;;;;;;59.77;30.33;;;;;;;;;;4915443;29;20986;-78
2022/01/14 04:42:41;;;;;;;51.90;27.23;;;;;;;;;;4911362;29;20459;-79
2022/01/14 04:45:08;;;;;;;52.38;28.25;;;;;;;;;;4882715;29;20437;-78
2022/01/14 04:47:46;;;;;;;54.03;27.83;;;;;;;;;;4899835;29;20522;-79
2022/01/14 04:50:17;;;;;;;53.67;27.83;;;;;;;;;;4910371;29;20522;-79
2022/01/14 04:52:45;;;;;;;54.03;27.98;;;;;;;;;;4895077;29;20476;-78
2022/01/14 04:55:12;;;;;;;52.47;29.65;;;;;;;;;;4892490;29;20960;-78
2022/01/14 04:57:38;;;;;;;53.20;29.35;;;;;;;;;;4915623;29;20487;-78
2022/01/14 05:00:06;;;;;;;50.80;28.45;;;;;;;;;;4905193;29;20439;-79
2022/01/14 05:02:32;;;;;;;54.20;27.73;;;;;;;;;;4913959;29;20498;-78
2022/01/14 05:04:59;;;;;;;48.13;27.97;;;;;;;;;;4896038;29;20436;-78
2022/01/14 05:07:26;;;;;;;54.30;27.40;;;;;;;;;;4899971;29;20433;-79
2022/01/14 05:10:19;;;;;;;48.43;28.13;;;;;;;;;;4912412;29;20465;-78
2022/01/14 05:12:42;;;;;;;51.58;28.63;;;;;;;;;;4897960;29;20449;-79
2022/01/14 05:15:09;;;;;;;46.30;27.98;;;;;;;;;;4881160;29;20514;-79
2022/01/14 05:17:35;;;;;;;50.67;27.85;;;;;;;;;;4897300;29;20456;-78
2022/01/14 05:20:02;;;;;;;50.95;27.75;;;;;;;;;;4897952;29;20844;-78
2022/01/14 05:22:28;;;;;;;48.17;28.10;;;;;;;;;;4909304;29;20529;-78
2022/01/14 05:24:55;;;;;;;47.60;26.47;;;;;;;;;;4895284;29;20451;-78
2022/01/14 05:27:21;;;;;;;47.47;27.15;;;;;;;;;;4912617;29;20435;-78
2022/01/14 05:29:47;;;;;;;44.47;26.77;;;;;;;;;;4883674;29;20425;-79
2022/01/14 05:32:15;;;;;;;47.97;27.02;;;;;;;;;;4877135;29;20849;-78
2022/01/14 05:34:41;;;;;;;47.33;27.02;;;;;;;;;;4910012;29;20431;-78
2022/01/14 05:37:08;;;;;;;46.22;26.13;;;;;;;;;;4894847;29;20526;-78
2022/01/14 05:39:34;;;;;;;45.60;26.63;;;;;;;;;;4892091;29;20435;-78
2022/01/14 05:42:01;;;;;;;47.83;26.90;;;;;;;;;;4896510;29;20462;-78
2022/01/14 05:44:28;;;;;;;43.75;26.50;;;;;;;;;;4903328;29;20877;-77
2022/01/14 05:46:55;;;;;;;45.53;26.00;;;;;;;;;;4876122;29;20433;-77
2022/01/14 05:49:21;;;;;;;46.58;26.35;;;;;;;;;;4904617;29;20904;-78
2022/01/14 05:51:47;;;;;;;46.23;26.10;;;;;;;;;;4912436;29;20431;-78
2022/01/14 05:54:14;;;;;;;44.80;25.07;;;;;;;;;;4906847;29;20821;-78
2022/01/14 05:56:40;;;;;;;44.58;26.15;;;;;;;;;;4910791;29;20423;-78
2022/01/14 05:59:07;;;;;;;45.53;25.60;;;;;;;;;;4906184;29;20464;-78
2022/01/14 06:01:33;;;;;;;42.28;25.98;;;;;;;;;;4896991;29;20438;-78
2022/01/14 06:04:00;;;;;;;45.70;26.48;;;;;;;;;;4876787;29;20482;-78
2022/01/14 06:06:26;;;;;;;41.10;26.03;;;;;;;;;;4892334;29;20528;-78
2022/01/14 06:08:52;;;;;;;38.55;24.05;;;;;;;;;;4892313;29;20462;-78
2022/01/14 06:11:18;;;;;;;46.42;25.88;;;;;;;;;;4912602;29;20480;-78
2022/01/14 06:13:45;;;;;;;42.08;25.10;;;;;;;;;;4891496;29;20804;-78
2022/01/14 06:16:11;;;;;;;39.55;24.27;;;;;;;;;;4892347;29;20429;-78
2022/01/14 06:18:37;;;;;;;44.72;25.33;;;;;;;;;;4893099;29;20524;-78
2022/01/14 06:21:04;;;;;;;45.60;24.50;;;;;;;;;;4907308;29;20430;-78
2022/01/14 06:23:30;;;;;;;42.90;24.33;;;;;;;;;;4892240;29;20783;-78
2022/01/14 06:25:56;;;;;;;40.80;24.50;;;;;;;;;;4893567;29;20433;-78
2022/01/14 06:28:22;;;;;;;46.67;25.77;;;;;;;;;;4878484;29;20441;-78
2022/01/14 06:30:48;;;;;;;43.50;24.63;;;;;;;;;;4907241;29;20432;-78
2022/01/14 06:33:14;;;;;;;45.50;24.65;;;;;;;;;;4894587;29;20441;-78
2022/01/14 06:35:40;;;;;;;42.50;23.95;;;;;;;;;;4889965;29;20423;-78
2022/01/14 06:38:07;;;;;;;41.03;24.10;;;;;;;;;;4907821;29;20934;-77
2022/01/14 06:40:33;;;;;;;41.43;24.53;;;;;;;;;;4897657;29;20511;-77
2022/01/14 06:43:00;;;;;;;39.45;23.85;;;;;;;;;;4907891;29;20538;-77
2022/01/14 06:45:26;;;;;;;49.20;25.60;;;;;;;;;;4903152;29;20443;-78
2022/01/14 06:47:52;;;;;;;43.38;23.08;;;;;;;;;;4895718;29;20941;-78
2022/01/14 06:50:19;;;;;;;42.67;24.15;;;;;;;;;;4910876;29;20428;-78
2022/01/14 06:52:45;;;;;;;40.92;24.08;;;;;;;;;;4890696;29;20437;-78
2022/01/14 06:55:11;;;;;;;40.03;23.33;;;;;;;;;;4892890;29;20898;-77
2022/01/14 06:57:37;;;;;;;40.88;22.67;;;;;;;;;;4913612;29;20502;-78
2022/01/14 07:00:08;;;;;;;40.92;22.63;;;;;;;;;;4880187;29;20421;-78
2022/01/14 07:02:34;;;;;;;40.10;23.55;;;;;;;;;;4907020;29;20427;-78
2022/01/14 07:05:00;;;;;;;41.35;21.80;;;;;;;;;;4885198;29;20933;-78
2022/01/14 07:07:26;;;;;;;42.22;22.08;;;;;;;;;;4895983;29;20824;-78
2022/01/14 07:09:58;;;;;;;38.28;21.48;;;;;;;;;;4909881;29;20511;-78
2022/01/14 07:12:32;;;;;;;38.03;21.03;;;;;;;;;;4889938;29;20510;-78
2022/01/14 07:14:58;;;;;;;37.38;21.60;;;;;;;;;;4879729;29;20520;-78
2022/01/14 07:17:25;;;;;;;36.80;20.10;;;;;;;;;;4890065;29;20586;-78
2022/01/14 07:19:54;;;;;;;34.70;19.55;;;;;;;;;;4894612;29;20429;-78
2022/01/14 07:22:20;;;;;;;36.28;20.02;;;;;;;;;;4909219;29;20470;-78
2022/01/14 07:24:47;;;;;;;37.38;19.83;;;;;;;;;;4884428;29;20431;-77
2022/01/14 07:27:13;;;;;;;34.30;19.35;;;;;;;;;;4891989;29;20474;-78
2022/01/14 07:29:39;;;;;;;38.88;21.27;;;;;;;;;;4891705;29;20953;-78
2022/01/14 07:32:06;;;;;;;38.60;18.87;;;;;;;;;;4891711;29;20440;-78
2022/01/14 07:34:32;;;;;;;41.35;19.83;;;;;;;;;;4903603;29;20440;-77
2022/01/14 07:36:58;;;;;;;38.22;18.25;;;;;;;;;;4894263;29;20566;-77
2022/01/14 07:39:25;;;;;;;46.63;21.92;;;;;;;;;;4884288;29;20423;-77
2022/01/14 07:41:51;;;;;;;46.35;23.75;;;;;;;;;;4908655;29;20427;-77
2022/01/14 07:44:18;;;;;;;61.78;33.65;;;;;;;;;;4909802;29;20519;-77
2022/01/14 07:46:44;;;;;;;42.50;22.98;;;;;;;;;;4904507;29;20520;-77
2022/01/14 07:49:10;;;;;;;38.00;18.97;;;;;;;;;;4900039;29;20464;-76
2022/01/14 07:51:36;;;;;;;33.35;18.13;;;;;;;;;;4897622;29;20427;-77
2022/01/14 07:54:06;;;;;;;39.67;20.05;;;;;;;;;;4892436;29;20947;-77
2022/01/14 07:56:36;;;;;;;34.57;19.73;;;;;;;;;;4927579;29;20816;-77
2022/01/14 07:59:03;;;;;;;37.28;18.05;;;;;;;;;;4902135;29;20468;-76
2022/01/14 08:01:29;;;;;;;42.60;25.33;;;;;;;;;;4906789;29;20423;-77
2022/01/14 08:03:55;;;;;;;40.38;17.52;;;;;;;;;;4892088;29;20444;-77
2022/01/14 08:06:24;;;;;;;39.65;18.08;;;;;;;;;;4875725;29;20467;-78
2022/01/14 08:08:50;;;;;;;31.45;16.67;;;;;;;;;;4866989;29;20937;-78
2022/01/14 08:11:16;;;;;;;32.85;17.80;;;;;;;;;;4904011;29;20434;-78
2022/01/14 08:13:42;;;;;;;32.67;18.05;;;;;;;;;;4885522;29;20799;-78
2022/01/14 08:16:08;;;;;;;32.50;16.27;;;;;;;;;;4888680;29;20434;-78
2022/01/14 08:18:36;;;;;;;35.13;15.70;;;;;;;;;;4896968;29;20440;-77
2022/01/14 08:21:03;;;;;;;32.53;15.50;;;;;;;;;;4895863;29;20518;-78
2022/01/14 08:23:29;;;;;;;30.88;15.95;;;;;;;;;;4897356;29;20429;-78
2022/01/14 08:25:57;;;;;;;28.52;15.40;;;;;;;;;;4910476;29;20945;-78
2022/01/14 08:28:24;;;;;;;28.83;14.95;;;;;;;;;;4885491;29;20444;-77
2022/01/14 08:30:50;;;;;;;31.60;14.23;;;;;;;;;;4865184;29;20452;-78
2022/01/14 08:33:16;;;;;;;28.20;14.63;;;;;;;;;;4900141;29;20662;-77
2022/01/14 08:35:42;;;;;;;29.27;14.23;;;;;;;;;;4901694;29;20436;-77
2022/01/14 08:38:08;;;;;;;32.25;13.98;;;;;;;;;;4895820;29;20419;-77
2022/01/14 08:40:35;;;;;;;27.50;13.82;;;;;;;;;;4905583;29;20520;-77
2022/01/14 08:43:01;;;;;;;30.80;14.30;;;;;;;;;;4886018;29;20446;-78
2022/01/14 08:45:27;;;;;;;26.70;14.00;;;;;;;;;;4897189;29;20441;-77
2022/01/14 08:47:54;;;;;;;25.77;13.57;;;;;;;;;;4912353;29;20446;-77
2022/01/14 08:50:25;;;;;;;32.10;13.90;;;;;;;;;;4909677;29;20919;-77
2022/01/14 08:52:52;;;;;;;31.30;14.15;;;;;;;;;;4884590;29;20726;-78
2022/01/14 08:55:19;;;;;;;26.52;12.85;;;;;;;;;;4897395;29;20512;-78
2022/01/14 08:57:45;;;;;;;27.17;12.45;;;;;;;;;;4900727;29;20437;-78
2022/01/14 09:00:12;;;;;;;24.67;12.68;;;;;;;;;;4899971;29;20441;-77
2022/01/14 09:02:39;;;;;;;28.17;12.35;;;;;;;;;;4897423;29;20842;-77
2022/01/14 09:05:05;;;;;;;26.50;12.18;;;;;;;;;;4874736;29;20432;-78
2022/01/14 09:07:31;;;;;;;24.43;11.90;;;;;;;;;;4895668;29;20437;-77
2022/01/14 09:09:57;;;;;;;24.13;11.40;;;;;;;;;;4894392;29;20827;-78
2022/01/14 09:12:23;;;;;;;23.43;11.67;;;;;;;;;;4889217;29;20521;-78
2022/01/14 09:14:50;;;;;;;22.55;10.65;;;;;;;;;;4878713;29;20533;-79
2022/01/14 09:17:17;;;;;;;24.90;11.02;;;;;;;;;;4901429;29;20426;-79
2022/01/14 09:19:44;;;;;;;24.73;10.75;;;;;;;;;;4918396;29;20516;-79
2022/01/14 09:22:10;;;;;;;21.00;10.32;;;;;;;;;;4897994;29;20441;-80
2022/01/14 09:24:36;;;;;;;20.30;9.82;;;;;;;;;;4886001;29;20431;-80
2022/01/14 09:32:18;;;;;;;21.88;9.82;;;;;;;;;;5137875;23;20484;-77
2022/01/14 09:35:06;;;;;;;24.35;9.73;;;;;;;;;;5520131;23;20872;31
2022/01/14 09:40:35;;;;;;;23.03;10.20;;;;;;;;;;4747079;23;20777;-78
2022/01/14 09:43:02;;;;;;;21.15;9.65;;;;;;;;;;4939832;28;20758;-78
2022/01/14 09:45:28;;;;;;;19.55;8.57;;;;;;;;;;4922849;29;20476;-77
2022/01/14 09:47:55;;;;;;;18.50;7.95;;;;;;;;;;4934601;28;20421;-77
2022/01/14 09:50:22;;;;;;;19.65;9.82;;;7.50;99.90;;;;;;4918123;29;20429;-77
2022/01/14 09:52:51;;;;;;;18.67;7.47;;;;;;;;;;4932513;28;20489;-76
2022/01/14 09:55:24;;;;;;;16.95;7.55;;;;;;;;;;4907746;28;20427;-76
2022/01/14 09:57:53;;;;;;;14.98;6.45;;;;;;;;;;4913437;29;20434;-76
2022/01/14 10:00:19;;;;;;;35.15;19.67;;;;;;;;;;4909566;29;20765;-76
2022/01/14 10:02:45;;;;;;;17.77;6.78;;;;;;;;;;4929981;28;20425;-76
2022/01/14 10:05:31;;;;;;;22.33;10.93;;;;;;;;;;4910903;28;20925;-76
2022/01/14 10:08:07;;;;;;;17.30;7.00;;;;;;;;;;4927479;28;20905;-76
2022/01/14 10:10:36;;;;;;;12.82;6.35;;;;;;;;;;4910033;28;20438;-76
2022/01/14 10:13:18;;;;;;;19.05;6.55;;;;;;;;;;4915312;29;20540;-76
2022/01/14 10:15:53;;;;;;;19.08;9.30;;;;;;;;;;4928129;29;20445;-76
2022/01/14 10:18:20;;;;;;;18.85;8.43;;;;;;;;;;4903694;28;20437;-76
2022/01/14 10:20:47;;;;;;;19.53;6.87;;;;;;;;;;4936472;28;20454;-76
2022/01/14 10:23:13;;;;;;;16.23;6.28;;;;;;;;;;4927111;29;20441;-76
2022/01/14 10:25:40;;;;;;;17.70;7.68;;;;;;;;;;4912916;29;20441;-75
2022/01/14 10:28:16;;;;;;;20.50;6.32;;;;;;;;;;4923420;28;20466;-76
2022/01/14 10:30:44;;;;;;;17.77;8.00;;;;;;;;;;4928563;28;20446;-76
2022/01/14 10:33:11;;;;;;;18.35;6.43;;;;;;;;;;4927402;28;21004;-76
2022/01/14 10:35:42;;;;;;;14.88;5.65;;;;;;;;;;4927265;29;20468;-76
2022/01/14 10:38:09;;;;;;;16.88;7.47;;;;;;;;;;4909187;29;20889;-78
2022/01/14 10:40:39;;;;;;;16.63;7.00;;;;;;;;;;4902654;29;20510;-77
2022/01/14 10:43:06;;;;;;;14.75;6.10;;;;;;;;;;4906237;29;20467;-78
2022/01/14 10:45:34;;;;;;;16.40;6.22;;;;;;;;;;4917297;29;20481;-77
2022/01/14 10:48:02;;;;;;;16.93;5.87;;;;;;;;;;4922483;29;20426;-77
2022/01/14 10:50:28;;;;;;;16.08;5.90;;;;;;;;;;4902796;29;20447;-77
2022/01/14 10:52:54;;;;;;;16.13;5.57;;;;;;;;;;4912713;29;20446;-79
2022/01/14 10:55:39;;;;;;;14.25;5.57;;;;;;;;;;4905214;28;20435;-80
2022/01/14 10:58:08;;;;;;;17.42;5.88;;;;;;;;;;4938996;28;20453;-78
2022/01/14 11:00:39;;;;;;;16.55;5.70;;;;;;;;;;4931352;29;20710;-78
2022/01/14 11:03:05;;;;;;;14.10;5.90;;;;;;;;;;4901781;29;20431;-78
2022/01/14 11:05:33;;;;;;;19.67;6.32;;;;;;;;;;4922964;29;20473;-78
2022/01/14 11:08:00;;;;;;;15.48;5.60;;;;;;;;;;4907327;29;20434;-77
2022/01/14 11:10:31;;;;;;;18.33;5.70;;;;;;;;;;4925746;29;20533;-78
2022/01/14 11:13:00;;;;;;;17.77;5.85;;;;;;;;;;4919871;29;21830;-79
2022/01/14 11:15:28;;;;;;;19.27;6.13;;;7.90;99.90;;;;;;4898921;29;20444;-78
2022/01/14 11:17:56;;;;;;;14.82;5.63;;;;;;;;;;4933811;29;22220;-78
2022/01/14 11:20:28;;;;;;;15.95;5.47;;;;;;;;;;4933678;29;20439;-78
2022/01/14 11:25:42;;;;;;;15.60;5.15;;;;;;;;;;4928337;29;20563;-78
2022/01/14 11:28:09;;;;;;;13.82;5.25;;;;;;;;;;4933199;29;20463;-78
2022/01/14 11:30:38;;;;;;;19.58;5.60;;;;;;;;;;4933149;29;20467;-78
2022/01/14 11:33:04;;;;;;;16.38;5.65;;;;;;;;;;4927896;29;20465;-78
2022/01/14 11:35:31;;;;;;;21.60;7.03;;;8.00;99.90;;;;;;4939568;29;20434;-77
2022/01/14 11:37:58;;;;;;;19.33;7.32;;;;;;;;;;4904115;29;20826;-78
2022/01/14 11:40:24;;;;;;;20.00;7.20;;;;;;;;;;4917624;29;20430;-77
2022/01/14 11:42:58;;;;;;;16.95;5.82;;;;;;;;;;4913199;29;20486;-77
2022/01/14 11:45:42;;;;;;;17.80;6.15;;;;;;;;;;4948281;28;20506;-78
2022/01/14 11:48:09;;;;;;;18.98;6.57;;;;;;;;;;4927445;29;20439;-78
2022/01/14 11:50:38;;;;;;;21.17;6.80;;;;;;;;;;4916825;29;20443;-78
2022/01/14 11:53:04;;;;;;;16.60;6.57;;;;;;;;;;4919674;29;20447;-78
2022/01/14 11:55:35;;;;;;;20.10;6.07;;;;;;;;;;4923177;29;20431;-79
2022/01/14 11:58:03;;;;;;;17.65;6.47;;;;;;;;;;4908754;29;20439;-78
2022/01/14 12:00:41;;;;;;;19.30;6.00;;;;;;;;;;4929934;29;20456;-78
2022/01/14 12:03:07;;;;;;;19.42;6.30;;;;;;;;;;4911387;29;20999;-78
2022/01/14 12:05:34;;;;;;;16.60;5.83;;;;;;;;;;4932699;29;20434;-78
2022/01/14 12:10:30;;;;;;;17.08;6.13;;;;;;;;;;4930338;29;20435;-78
2022/01/14 12:13:18;;;;;;;17.83;6.10;;;;;;;;;;4917843;29;20479;-78
2022/01/14 12:15:47;;;;;;;21.20;6.78;;;;;;;;;;4909482;29;20429;-78
2022/01/14 12:18:14;;;;;;;15.25;6.10;;;;;;;;;;4912844;29;20509;-78
2022/01/14 12:20:49;;;;;;;17.95;5.93;;;;;;;;;;4918069;29;20428;-77
2022/01/14 12:23:18;;;;;;;16.65;5.85;;;;;;;;;;4897965;29;20442;-78
2022/01/14 12:25:45;;;;;;;20.70;6.03;;;;;;;;;;4929859;29;20429;-78
2022/01/14 12:28:17;;;;;;;18.37;5.97;;;;;;;;;;4909325;29;20496;-79
2022/01/14 12:30:56;;;;;;;18.00;6.40;;;;;;;;;;4912571;29;20490;-79
2022/01/14 12:33:41;;;;;;;20.85;7.40;;;;;;;;;;4943259;29;20457;-77
2022/01/14 12:36:14;;;;;;;18.10;6.00;;;;;;;;;;4927378;29;20442;-78
2022/01/14 12:38:41;;;;;;;21.17;5.85;;;;;;;;;;4915565;29;20436;-77
2022/01/14 12:49:38;;;;;;;20.98;7.00;;;;;;;;;;4535969;23;21248;-85
2022/01/14 12:55:03;;;;;;;17.42;7.40;;;;;;;;;;4909977;23;20445;-78
2022/01/14 12:57:29;;;;;;;21.13;8.40;;;;;;;;;;4897939;29;20455;-77
2022/01/14 12:59:55;;;;;;;21.05;6.43;;;;;;;;;;4878004;29;20439;-76
2022/01/14 13:02:23;;;;;;;35.47;14.52;;;;;;;;;;4892704;29;20462;-78
2022/01/14 13:05:06;;;;;;;23.83;10.32;;;;;;;;;;4895277;29;20932;-78
2022/01/14 13:07:33;;;;;;;20.95;9.07;;;;;;;;;;4896658;29;20415;-77
2022/01/14 13:09:59;;;;;;;14.55;5.85;;;;;;;;;;4895496;29;20483;-77
2022/01/14 13:12:35;;;;;;;15.60;6.03;;;;;;;;;;4884361;29;20475;-77
2022/01/14 13:15:04;;;;;;;20.73;8.70;;;;;;;;;;4880815;29;20433;-76
2022/01/14 13:17:35;;;;;;;19.45;6.53;;;;;;;;;;4911533;29;20419;-77
2022/01/14 13:20:08;;;;;;;18.85;6.30;;;;;;;;;;4900566;29;20693;-77
2022/01/14 13:22:35;;;;;;;22.58;7.20;;;;;;;;;;4897774;29;20484;-78
2022/01/14 13:25:04;;;;;;;21.20;7.88;;;;;;;;;;4894862;29;20521;-77
2022/01/14 13:27:31;;;;;;;21.90;7.88;;;;;;;;;;4896762;29;20440;-76
2022/01/14 13:29:58;;;;;;;21.42;7.78;;;;;;;;;;4897386;29;20516;-77
2022/01/14 13:32:26;;;;;;;21.93;7.87;;;8.00;99.90;;;;;;4878116;29;20514;-76
2022/01/14 13:34:55;;;;;;;26.77;10.82;;;8.00;99.90;;;;;;4912845;29;20433;-76
2022/01/14 13:37:23;;;;;;;36.70;15.32;;;;;;;;;;4889302;29;20505;-76
2022/01/14 13:40:05;;;;;;;56.65;26.42;;;;;;;;;;4878416;29;20448;-75
2022/01/14 13:42:31;;;;;;;101.23;45.93;;;;;;;;;;4878409;29;20992;-77
2022/01/14 13:45:08;;;;;;;24.70;9.02;;;8.10;99.90;;;;;;4879585;29;20431;-76
2022/01/14 13:47:35;;;;;;;23.92;8.20;;;;;;;;;;4893151;29;21783;-76
2022/01/14 13:50:28;;;;;;;23.65;7.85;;;;;;;;;;4893925;29;20441;-75
2022/01/14 13:52:58;;;;;;;27.23;9.75;;;;;;;;;;4905827;29;21037;-76
2022/01/14 13:55:32;;;;;;;29.30;10.00;;;;;;;;;;4896872;29;20512;-76
2022/01/14 13:58:20;;;;;;;29.37;8.97;;;;;;;;;;4875845;29;20591;-75
2022/01/14 14:00:47;;;;;;;30.75;9.88;;;;;;;;;;4895771;29;20440;-75
2022/01/14 14:03:16;;;;;;;34.00;10.02;;;;;;;;;;4877760;29;20464;-76
2022/01/14 14:05:46;;;;;;;35.30;10.50;;;8.00;99.90;;;;;;4893711;29;20445;-75
2022/01/14 14:08:22;;;;;;;34.35;10.25;;;;;;;;;;4880029;29;20437;-77
2022/01/14 14:16:42;;;;;;;38.63;10.40;;;;;;;;;;4895072;29;20441;-78
2022/01/14 14:19:08;;;;;;;34.53;10.27;;;;;;;;;;4883921;29;20508;-78
2022/01/14 14:21:34;;;;;;;29.35;9.65;;;;;;;;;;4875351;29;20431;-78
2022/01/14 14:24:02;;;;;;;38.10;11.02;;;;;;;;;;4863827;29;20433;-77
2022/01/14 14:26:30;;;;;;;36.35;10.98;;;;;;;;;;4893440;29;20436;-76
2022/01/14 14:29:00;;;;;;;35.35;10.10;;;;;;;;;;4875646;29;20429;-76
2022/01/14 14:31:31;;;;;;;39.55;13.18;;;;;;;;;;4895486;29;20864;-79
2022/01/14 14:33:57;;;;;;;36.25;10.93;;;;;;;;;;4879116;29;20445;-79
2022/01/14 14:36:26;;;;;;;40.60;10.60;;;;;;;;;;4896553;29;20785;-78
2022/01/14 14:38:52;;;;;;;36.30;11.10;;;;;;;;;;4879947;29;20429;-77
2022/01/14 14:41:19;;;;;;;38.83;10.93;;;;;;;;;;4895859;29;20520;-78
2022/01/14 14:43:45;;;;;;;47.45;10.88;;;;;;;;;;4888712;29;20439;-78
2022/01/14 14:46:11;;;;;;;42.90;10.95;;;;;;;;;;4882280;29;20508;-78
2022/01/14 14:48:38;;;;;;;40.35;12.02;;;;;;;;;;4888136;29;20801;-77
2022/01/14 14:51:04;;;;;;;34.45;11.38;;;;;;;;;;4891315;29;20444;-77
2022/01/14 14:53:31;;;;;;;35.22;11.15;;;;;;;;;;4876065;29;20445;-77
2022/01/14 14:55:57;;;;;;;41.30;11.02;;;;;;;;;;4892769;29;20434;-77
2022/01/14 14:58:23;;;;;;;32.72;10.73;;;;;;;;;;4887968;29;20931;-78
2022/01/14 15:00:49;;;;;;;37.58;12.00;;;;;;;;;;4894403;29;20485;-78
2022/01/14 15:03:15;;;;;;;45.65;11.82;;;;;;;;;;4878801;29;20430;-78
2022/01/14 15:05:41;;;;;;;38.28;10.90;;;;;;;;;;4877872;29;20475;-78
2022/01/14 15:08:08;;;;;;;33.25;10.98;;;;;;;;;;4877882;29;20435;-77
2022/01/14 15:10:34;;;;;;;38.90;11.43;;;;;;;;;;4894242;29;20448;-78
2022/01/14 15:13:01;;;;;;;41.65;10.70;;;;;;;;;;4874453;29;20437;-78
2022/01/14 15:18:11;;;;;;;43.22;11.82;;;;;;;;;;4896782;29;20429;-77